createdAt,value
2018-05-14T00:01:08.214Z,100766.30
2018-05-14T00:03:35.830Z,100766.70
2018-05-14T00:06:03.446Z,100762.55
2018-05-14T00:08:31.061Z,100762.64
2018-05-14T00:10:58.632Z,100762.08
2018-05-14T00:13:26.206Z,100770.55
2018-05-14T00:15:53.782Z,100762.55
2018-05-14T00:18:21.398Z,100763.52
2018-05-14T00:20:49.078Z,100766.45
2018-05-14T00:23:16.697Z,100761.54
2018-05-14T00:25:44.281Z,100766.86
2018-05-14T00:28:11.901Z,100756.94
2018-05-14T00:30:39.486Z,100768.81
2018-05-14T00:33:07.158Z,100760.08
2018-05-14T00:35:35.658Z,100763.97
2018-05-14T00:38:03.272Z,100769.69
2018-05-14T00:40:30.845Z,100757.23
2018-05-14T00:42:58.465Z,100760.56
2018-05-14T00:45:26.047Z,100760.34
2018-05-14T00:47:53.627Z,100757.98
2018-05-14T00:50:21.310Z,100761.31
2018-05-14T00:52:49.005Z,100760.70
2018-05-14T00:55:17.345Z,100767.05
2018-05-14T00:57:44.922Z,100766.84
2018-05-14T01:00:13.448Z,100767.78
2018-05-14T01:02:41.035Z,100765.96
2018-05-14T01:05:08.659Z,100764.15
2018-05-14T01:07:36.246Z,100760.30
2018-05-14T01:10:03.898Z,100759.60
2018-05-14T01:12:31.475Z,100760.08
2018-05-14T01:14:59.093Z,100768.79
2018-05-14T01:17:26.671Z,100771.03
2018-05-14T01:19:55.081Z,100772.80
2018-05-14T01:22:22.652Z,100776.32
2018-05-14T01:24:55.879Z,100777.47
2018-05-14T01:27:23.458Z,100779.95
2018-05-14T01:29:51.030Z,100773.86
2018-05-14T01:32:18.601Z,100765.87
2018-05-14T01:34:46.180Z,100769.73
2018-05-14T01:37:13.761Z,100764.80
2018-05-14T01:39:41.337Z,100771.42
2018-05-14T01:42:08.917Z,100769.16
2018-05-14T01:44:36.497Z,100768.27
2018-05-14T01:47:04.165Z,100772.31
2018-05-14T01:49:31.737Z,100769.58
2018-05-14T01:51:59.371Z,100768.27
2018-05-14T01:54:26.945Z,100776.50
2018-05-14T01:56:54.518Z,100767.20
2018-05-14T01:59:22.094Z,100771.82
2018-05-14T02:01:49.680Z,100770.72
2018-05-14T02:04:17.261Z,100765.64
2018-05-14T02:06:44.840Z,100774.20
2018-05-14T02:09:12.417Z,100774.16
2018-05-14T02:11:39.994Z,100767.78
2018-05-14T02:14:07.569Z,100770.02
2018-05-14T02:16:35.148Z,100767.38
2018-05-14T02:19:02.723Z,100763.11
2018-05-14T02:21:30.369Z,100764.11
2018-05-14T02:23:57.985Z,100766.00
2018-05-14T02:26:25.590Z,100773.59
2018-05-14T02:28:53.395Z,100764.49
2018-05-14T02:31:21.731Z,100765.80
2018-05-14T02:33:50.090Z,100768.33
2018-05-14T02:36:17.702Z,100770.64
2018-05-14T02:38:45.293Z,100769.53
2018-05-14T02:41:12.876Z,100765.67
2018-05-14T02:43:41.277Z,100764.87
2018-05-14T02:46:08.855Z,100766.88
2018-05-14T02:48:36.430Z,100774.98
2018-05-14T02:51:04.064Z,100768.22
2018-05-14T02:53:31.728Z,100768.61
2018-05-14T02:55:59.347Z,100771.18
2018-05-14T02:58:26.925Z,100774.93
2018-05-14T03:00:54.511Z,100769.92
2018-05-14T03:03:22.089Z,100771.27
2018-05-14T03:05:49.664Z,100771.34
2018-05-14T03:08:17.249Z,100779.01
2018-05-14T03:10:44.830Z,100779.73
2018-05-14T03:13:12.407Z,100780.47
2018-05-14T03:15:40.084Z,100784.30
2018-05-14T03:18:07.679Z,100783.91
2018-05-14T03:20:35.263Z,100787.10
2018-05-14T03:23:02.872Z,100783.22
2018-05-14T03:25:30.464Z,100776.78
2018-05-14T03:27:58.041Z,100787.25
2018-05-14T03:30:25.618Z,100789.05
2018-05-14T03:32:53.201Z,100793.32
2018-05-14T03:35:20.777Z,100788.73
2018-05-14T03:37:48.473Z,100796.16
2018-05-14T03:40:16.051Z,100788.73
2018-05-14T03:42:44.226Z,100800.92
2018-05-14T03:45:11.800Z,100797.22
2018-05-14T03:47:39.402Z,100797.84
2018-05-14T03:50:06.977Z,100804.86
2018-05-14T03:52:35.497Z,100799.18
2018-05-14T03:55:03.068Z,100805.07
2018-05-14T03:57:31.434Z,100806.50
2018-05-14T04:00:10.829Z,100804.52
2018-05-14T04:02:50.395Z,100814.25
2018-05-14T04:05:17.977Z,100821.52
2018-05-14T04:07:45.562Z,100822.39
2018-05-14T04:10:13.130Z,100821.38
2018-05-14T04:12:42.545Z,100822.05
2018-05-14T04:15:10.130Z,100825.12
2018-05-14T04:17:37.706Z,100828.43
2018-05-14T04:20:05.284Z,100830.44
2018-05-14T04:22:32.853Z,100829.52
2018-05-14T04:25:00.432Z,100823.55
2018-05-14T04:27:28.012Z,100823.71
2018-05-14T04:29:55.859Z,100829.75
2018-05-14T04:32:23.481Z,100833.41
2018-05-14T04:34:51.113Z,100821.25
2018-05-14T04:37:18.686Z,100830.28
2018-05-14T04:39:47.249Z,100837.19
2018-05-14T04:42:14.833Z,100842.36
2018-05-14T04:44:42.410Z,100835.45
2018-05-14T04:47:09.990Z,100843.05
2018-05-14T04:49:37.567Z,100846.12
2018-05-14T04:52:05.161Z,100847.53
2018-05-14T04:54:32.797Z,100835.41
2018-05-14T04:57:00.483Z,100839.66
2018-05-14T04:59:28.070Z,100835.03
2018-05-14T05:01:55.659Z,100839.86
2018-05-14T05:04:23.271Z,100844.73
2018-05-14T05:06:50.853Z,100847.34
2018-05-14T05:09:18.429Z,100840.64
2018-05-14T05:11:46.008Z,100848.67
2018-05-14T05:14:13.614Z,100841.53
2018-05-14T05:16:41.197Z,100849.78
2018-05-14T05:19:08.805Z,100846.92
2018-05-14T05:21:36.385Z,100850.94
2018-05-14T05:24:04.769Z,100851.13
2018-05-14T05:26:32.349Z,100862.24
2018-05-14T05:28:59.932Z,100854.79
2018-05-14T05:31:27.511Z,100860.39
2018-05-14T05:33:55.085Z,100864.80
2018-05-14T05:36:22.669Z,100860.67
2018-05-14T05:38:50.245Z,100869.09
2018-05-14T05:41:17.914Z,100866.81
2018-05-14T05:43:45.496Z,100865.98
2018-05-14T05:46:13.076Z,100859.34
2018-05-14T05:48:40.725Z,100867.22
2018-05-14T05:51:08.308Z,100857.19
2018-05-14T05:53:35.882Z,100860.95
2018-05-14T05:56:03.459Z,100861.99
2018-05-14T05:58:31.038Z,100866.31
2018-05-14T06:00:58.623Z,100865.91
2018-05-14T06:03:26.209Z,100869.53
2018-05-14T06:05:57.606Z,100863.91
2018-05-14T06:08:25.179Z,100870.67
2018-05-14T06:10:53.761Z,100871.25
2018-05-14T06:13:21.341Z,100871.28
2018-05-14T06:15:48.930Z,100868.28
2018-05-14T06:18:16.502Z,100866.80
2018-05-14T06:20:44.074Z,100859.65
2018-05-14T06:23:11.657Z,100867.72
2018-05-14T06:25:39.234Z,100859.23
2018-05-14T06:28:06.816Z,100867.52
2018-05-14T06:30:34.389Z,100861.00
2018-05-14T06:33:01.977Z,100862.67
2018-05-14T06:35:30.566Z,100866.09
2018-05-14T06:37:58.988Z,100873.06
2018-05-14T06:40:26.660Z,100868.42
2018-05-14T06:42:54.173Z,100861.55
2018-05-14T06:45:21.749Z,100864.47
2018-05-14T06:47:49.325Z,100862.81
2018-05-14T06:50:17.899Z,100866.69
2018-05-14T06:52:46.239Z,100865.47
2018-05-14T06:55:13.860Z,100863.30
2018-05-14T06:57:41.423Z,100870.27
2018-05-14T07:00:09.001Z,100873.02
2018-05-14T07:02:36.580Z,100872.48
2018-05-14T07:05:04.157Z,100873.53
2018-05-14T07:07:31.733Z,100874.31
2018-05-14T07:09:59.315Z,100879.12
2018-05-14T07:12:26.883Z,100874.42
2018-05-14T07:14:54.462Z,100875.77
2018-05-14T07:17:22.045Z,100881.94
2018-05-14T07:19:50.535Z,100881.53
2018-05-14T07:22:18.106Z,100890.05
2018-05-14T07:24:45.700Z,100881.84
2018-05-14T07:27:13.289Z,100891.86
2018-05-14T07:29:40.865Z,100890.39
2018-05-14T07:32:08.499Z,100894.50
2018-05-14T07:34:38.010Z,100895.33
2018-05-14T07:37:05.589Z,100896.02
2018-05-14T07:39:33.165Z,100900.08
2018-05-14T07:42:00.761Z,100903.58
2018-05-14T07:44:28.343Z,100898.90
2018-05-14T07:46:55.918Z,100903.34
2018-05-14T07:49:23.492Z,100914.64
2018-05-14T07:51:51.074Z,100914.94
2018-05-14T07:54:18.739Z,100916.88
2018-05-14T07:56:46.261Z,100914.22
2018-05-14T07:59:13.831Z,100914.30
2018-05-14T08:01:41.398Z,100917.36
2018-05-14T08:04:08.965Z,100913.41
2018-05-14T08:06:36.536Z,100922.48
2018-05-14T08:09:04.114Z,100917.45
2018-05-14T08:11:31.681Z,100922.89
2018-05-14T08:14:00.228Z,100917.45
2018-05-14T08:16:27.770Z,100917.62
2018-05-14T08:18:55.344Z,100929.17
2018-05-14T08:21:22.917Z,100931.85
2018-05-14T08:23:50.829Z,100931.89
2018-05-14T08:26:18.409Z,100933.84
2018-05-14T08:28:45.984Z,100931.06
2018-05-14T08:31:13.569Z,100927.48
2018-05-14T08:33:41.158Z,100928.02
2018-05-14T08:36:08.823Z,100928.85
2018-05-14T08:38:36.357Z,100933.44
2018-05-14T08:41:03.929Z,100927.38
2018-05-14T08:43:31.506Z,100934.17
2018-05-14T08:45:59.092Z,100918.72
2018-05-14T08:48:26.666Z,100929.08
2018-05-14T08:50:54.436Z,100935.27
2018-05-14T08:53:21.844Z,100925.14
2018-05-14T08:55:49.409Z,100929.77
2018-05-14T08:58:17.073Z,100923.12
2018-05-14T09:00:44.611Z,100937.22
2018-05-14T09:03:12.188Z,100925.24
2018-05-14T09:05:39.765Z,100930.23
2018-05-14T09:08:07.342Z,100934.97
2018-05-14T09:10:34.917Z,100922.05
2018-05-14T09:13:02.496Z,100937.11
2018-05-14T09:15:30.066Z,100925.97
2018-05-14T09:17:57.634Z,100938.42
2018-05-14T09:20:25.205Z,100931.14
2018-05-14T09:22:52.784Z,100931.07
2018-05-14T09:25:20.365Z,100918.50
2018-05-14T09:27:47.941Z,100913.78
2018-05-14T09:30:15.511Z,100920.00
2018-05-14T09:32:43.890Z,100928.68
2018-05-14T09:35:12.181Z,100927.09
2018-05-14T09:37:39.753Z,100920.29
2018-05-14T09:40:07.694Z,100925.99
2018-05-14T09:42:35.268Z,100919.38
2018-05-14T09:45:03.548Z,100915.72
2018-05-14T09:47:31.912Z,100909.19
2018-05-14T09:50:00.262Z,100918.51
2018-05-14T09:52:28.827Z,100909.66
2018-05-14T09:54:56.413Z,100914.08
2018-05-14T09:57:24.026Z,100914.37
2018-05-14T09:59:52.301Z,100926.07
2018-05-14T10:02:19.881Z,100917.38
2018-05-14T10:04:47.454Z,100909.95
2018-05-14T10:07:15.025Z,100919.59
2018-05-14T10:09:42.602Z,100917.34
2018-05-14T10:12:10.875Z,100912.91
2018-05-14T10:14:38.454Z,100912.78
2018-05-14T10:17:06.026Z,100919.84
2018-05-14T10:19:34.506Z,100919.80
2018-05-14T10:22:02.081Z,100927.17
2018-05-14T10:24:29.652Z,100916.92
2018-05-14T10:26:57.225Z,100917.08
2018-05-14T10:29:24.799Z,100917.20
2018-05-14T10:31:52.412Z,100922.98
2018-05-14T10:34:19.981Z,100923.53
2018-05-14T10:36:47.559Z,100932.52
2018-05-14T10:39:15.133Z,100927.98
2018-05-14T10:41:42.710Z,100914.73
2018-05-14T10:44:10.285Z,100914.11
2018-05-14T10:46:37.931Z,100923.42
2018-05-14T10:49:06.152Z,100925.94
2018-05-14T10:51:34.426Z,100917.97
2018-05-14T10:54:02.772Z,100914.95
2018-05-14T10:56:31.109Z,100928.20
2018-05-14T10:58:59.389Z,100919.19
2018-05-14T11:01:26.965Z,100925.28
2018-05-14T11:03:54.612Z,100909.53
2018-05-14T11:06:22.190Z,100910.86
2018-05-14T11:08:49.770Z,100914.60
2018-05-14T11:11:17.346Z,100920.82
2018-05-14T11:13:44.921Z,100923.44
2018-05-14T11:16:12.545Z,100932.30
2018-05-14T11:18:40.177Z,100921.95
2018-05-14T11:21:07.749Z,100924.27
2018-05-14T11:23:35.324Z,100927.63
2018-05-14T11:26:02.910Z,100928.06
2018-05-14T11:28:30.522Z,100914.05
2018-05-14T11:30:58.090Z,100925.28
2018-05-14T11:33:25.660Z,100925.61
2018-05-14T11:35:53.233Z,100917.81
2018-05-14T11:38:20.807Z,100924.34
2018-05-14T11:40:48.378Z,100917.58
2018-05-14T11:43:15.969Z,100911.72
2018-05-14T11:45:43.568Z,100920.37
2018-05-14T11:48:11.186Z,100922.63
2018-05-14T11:50:38.762Z,100909.72
2018-05-14T11:53:06.349Z,100911.91
2018-05-14T11:55:33.926Z,100917.20
2018-05-14T11:58:01.501Z,100914.14
2018-05-14T12:00:29.079Z,100906.50
2018-05-14T12:02:56.703Z,100907.95
2018-05-14T12:05:24.270Z,100910.75
2018-05-14T12:07:51.906Z,100908.28
2018-05-14T12:10:19.482Z,100914.91
2018-05-14T12:12:47.065Z,100907.55
2018-05-14T12:15:14.644Z,100906.67
2018-05-14T12:17:42.258Z,100917.28
2018-05-14T12:20:10.747Z,100909.53
2018-05-14T12:22:38.366Z,100909.55
2018-05-14T12:25:05.944Z,100911.09
2018-05-14T12:27:33.516Z,100908.39
2018-05-14T12:30:01.091Z,100911.30
2018-05-14T12:32:28.675Z,100915.52
2018-05-14T12:34:56.248Z,100904.66
2018-05-14T12:37:23.848Z,100908.31
2018-05-14T12:39:51.431Z,100907.25
2018-05-14T12:42:19.925Z,100911.81
2018-05-14T12:44:47.501Z,100915.36
2018-05-14T12:47:15.072Z,100911.39
2018-05-14T12:52:23.300Z,100901.53
2018-05-14T12:54:50.878Z,100906.22
2018-05-14T12:57:18.592Z,100904.67
2018-05-14T12:59:47.007Z,100898.28
2018-05-14T13:02:15.349Z,100904.13
2018-05-14T13:04:42.924Z,100901.67
2018-05-14T13:07:10.537Z,100896.10
2018-05-14T13:09:38.921Z,100909.34
2018-05-14T13:12:07.278Z,100899.95
2018-05-14T13:14:35.641Z,100903.08
2018-05-14T13:17:03.977Z,100903.38
2018-05-14T13:19:31.552Z,100908.14
2018-05-14T13:22:00.050Z,100908.33
2018-05-14T13:24:27.621Z,100897.48
2018-05-14T13:26:55.188Z,100906.19
2018-05-14T13:29:23.593Z,100896.70
2018-05-14T13:31:51.162Z,100903.80
2018-05-14T13:34:19.677Z,100913.30
2018-05-14T13:36:47.951Z,100898.67
2018-05-14T13:39:16.345Z,100910.97
2018-05-14T13:41:43.921Z,100899.82
2018-05-14T13:44:11.619Z,100900.63
2018-05-14T13:46:39.154Z,100891.72
2018-05-14T13:49:06.725Z,100894.19
2018-05-14T13:51:34.337Z,100903.12
2018-05-14T13:54:01.913Z,100905.19
2018-05-14T13:56:29.552Z,100903.22
2018-05-14T13:58:57.138Z,100902.95
2018-05-14T14:01:24.747Z,100901.04
2018-05-14T14:03:53.213Z,100906.45
2018-05-14T14:06:20.799Z,100911.63
2018-05-14T14:08:48.378Z,100906.47
2018-05-14T14:11:15.958Z,100893.00
2018-05-14T14:13:44.477Z,100904.50
2018-05-14T14:16:12.044Z,100900.88
2018-05-14T14:18:39.662Z,100911.55
2018-05-14T14:21:07.237Z,100887.05
2018-05-14T14:23:34.958Z,100903.78
2018-05-14T14:26:02.470Z,100908.72
2018-05-14T14:28:30.059Z,100906.38
2018-05-14T14:30:57.633Z,100903.99
2018-05-14T14:33:25.213Z,100909.22
2018-05-14T14:35:52.885Z,100910.95
2018-05-14T14:38:20.401Z,100907.77
2018-05-14T14:40:47.977Z,100902.00
2018-05-14T14:43:15.556Z,100900.25
2018-05-14T14:45:43.126Z,100896.80
2018-05-14T14:48:10.698Z,100893.73
2018-05-14T14:50:38.275Z,100895.41
2018-05-14T14:53:05.853Z,100893.88
2018-05-14T14:55:33.422Z,100897.69
2018-05-14T14:58:00.993Z,100900.20
2018-05-14T15:00:28.569Z,100894.19
2018-05-14T15:02:56.145Z,100891.20
2018-05-14T15:05:23.716Z,100899.80
2018-05-14T15:07:51.289Z,100898.95
2018-05-14T15:10:18.908Z,100889.64
2018-05-14T15:12:46.482Z,100891.03
2018-05-14T15:15:14.097Z,100890.22
2018-05-14T15:17:41.678Z,100886.34
2018-05-14T15:20:09.302Z,100891.27
2018-05-14T15:22:37.765Z,100891.41
2018-05-14T15:25:05.333Z,100888.89
2018-05-14T15:27:32.901Z,100887.27
2018-05-14T15:30:00.480Z,100891.67
2018-05-14T15:32:28.057Z,100884.38
2018-05-14T15:34:55.628Z,100892.41
2018-05-14T15:37:23.206Z,100890.37
2018-05-14T15:39:50.780Z,100885.63
2018-05-14T15:42:19.269Z,100893.75
2018-05-14T15:44:46.849Z,100889.98
2018-05-14T15:47:14.425Z,100892.65
2018-05-14T15:49:42.000Z,100888.27
2018-05-14T15:52:09.565Z,100890.99
2018-05-14T15:54:37.132Z,100890.19
2018-05-14T15:57:04.743Z,100883.92
2018-05-14T15:59:33.155Z,100892.73
2018-05-14T16:02:00.732Z,100903.10
2018-05-14T16:04:28.302Z,100898.07
2018-05-14T16:06:55.883Z,100897.83
2018-05-14T16:09:23.505Z,100889.98
2018-05-14T16:11:51.101Z,100897.48
2018-05-14T16:14:18.717Z,100896.78
2018-05-14T16:16:46.306Z,100895.78
2018-05-14T16:19:13.876Z,100903.98
2018-05-14T16:21:42.336Z,100905.41
2018-05-14T16:24:10.686Z,100897.98
2018-05-14T16:26:38.369Z,100899.02
2018-05-14T16:29:05.989Z,100887.77
2018-05-14T16:31:33.530Z,100894.83
2018-05-14T16:34:01.934Z,100891.96
2018-05-14T16:36:29.510Z,100886.55
2018-05-14T16:38:57.093Z,100892.45
2018-05-14T16:41:24.665Z,100889.76
2018-05-14T16:43:52.241Z,100891.05
2018-05-14T16:46:19.817Z,100888.80
2018-05-14T16:48:47.397Z,100892.38
2018-05-14T16:51:15.881Z,100899.35
2018-05-14T16:53:44.534Z,100894.57
2018-05-14T16:56:12.104Z,100900.80
2018-05-14T16:58:40.509Z,100902.30
2018-05-14T17:01:08.090Z,100905.08
2018-05-14T17:03:35.666Z,100918.16
2018-05-14T17:06:03.286Z,100920.12
2018-05-14T17:08:30.869Z,100921.15
2018-05-14T17:10:58.442Z,100921.17
2018-05-14T17:13:26.017Z,100923.24
2018-05-14T17:15:53.638Z,100921.03
2018-05-14T17:18:21.222Z,100920.01
2018-05-14T17:20:48.813Z,100912.58
2018-05-14T17:23:16.394Z,100913.77
2018-05-14T17:25:44.882Z,100923.73
2018-05-14T17:28:12.514Z,100921.84
2018-05-14T17:30:40.092Z,100925.09
2018-05-14T17:33:07.666Z,100922.72
2018-05-14T17:35:35.237Z,100926.97
2018-05-14T17:38:02.812Z,100925.70
2018-05-14T17:40:31.344Z,100922.63
2018-05-14T17:42:58.927Z,100930.18
2018-05-14T17:45:26.500Z,100932.73
2018-05-14T17:47:54.085Z,100928.98
2018-05-14T17:50:21.705Z,100928.84
2018-05-14T17:52:49.338Z,100933.59
2018-05-14T17:55:16.940Z,100932.02
2018-05-14T17:57:44.521Z,100932.98
2018-05-14T18:00:12.133Z,100928.48
2018-05-14T18:02:39.712Z,100929.66
2018-05-14T18:05:08.227Z,100931.77
2018-05-14T18:07:35.770Z,100925.95
2018-05-14T18:10:03.355Z,100928.92
2018-05-14T18:12:31.854Z,100935.66
2018-05-14T18:14:59.434Z,100940.51
2018-05-14T18:17:27.073Z,100941.17
2018-05-14T18:20:00.093Z,100940.52
2018-05-14T18:22:31.642Z,100939.27
2018-05-14T18:25:04.918Z,100944.96
2018-05-14T18:27:32.483Z,100945.66
2018-05-14T18:30:05.670Z,100942.59
2018-05-14T18:32:33.288Z,100944.66
2018-05-14T18:35:06.475Z,100948.11
2018-05-14T18:37:34.045Z,100948.67
2018-05-14T18:40:02.398Z,100950.88
2018-05-14T18:42:30.814Z,100954.59
2018-05-14T18:44:59.223Z,100954.80
2018-05-14T18:47:26.811Z,100954.29
2018-05-14T18:49:54.561Z,100959.42
2018-05-14T18:52:22.199Z,100962.14
2018-05-14T18:54:49.854Z,100973.30
2018-05-14T18:57:17.435Z,100967.53
2018-05-14T18:59:45.031Z,100974.75
2018-05-14T19:02:12.753Z,100983.23
2018-05-14T19:04:40.343Z,100987.41
2018-05-14T19:07:07.917Z,100986.03
2018-05-14T19:09:35.538Z,100992.44
2018-05-14T19:12:03.262Z,100999.08
2018-05-14T19:14:30.849Z,100992.20
2018-05-14T19:17:04.026Z,100997.52
2018-05-14T19:19:31.612Z,101005.17
2018-05-14T19:21:59.197Z,100999.72
2018-05-14T19:24:26.770Z,101003.09
2018-05-14T19:26:54.351Z,101012.38
2018-05-14T19:29:27.635Z,101010.89
2018-05-14T19:31:56.080Z,101013.13
2018-05-14T19:34:29.297Z,101010.22
2018-05-14T19:36:56.901Z,101014.88
2018-05-14T19:39:30.097Z,101016.78
2018-05-14T19:41:58.581Z,101018.06
2018-05-14T19:44:26.167Z,101021.41
2018-05-14T19:46:53.749Z,101016.80
2018-05-14T19:49:21.401Z,101020.92
2018-05-14T19:51:48.986Z,101019.89
2018-05-14T19:54:16.667Z,101020.52
2018-05-14T19:56:44.245Z,101020.11
2018-05-14T19:59:11.909Z,101023.63
2018-05-14T20:01:40.301Z,101014.64
2018-05-14T20:04:08.647Z,101023.78
2018-05-14T20:06:37.028Z,101024.31
2018-05-14T20:09:04.611Z,101029.89
2018-05-14T20:11:33.145Z,101028.30
2018-05-14T20:14:01.489Z,101028.77
2018-05-14T20:16:29.962Z,101028.55
2018-05-14T20:18:57.613Z,101036.48
2018-05-14T20:21:25.185Z,101029.59
2018-05-14T20:23:52.814Z,101029.75
2018-05-14T20:26:20.411Z,101034.95
2018-05-14T20:28:48.065Z,101045.05
2018-05-14T20:31:15.652Z,101037.72
2018-05-14T20:33:43.288Z,101040.84
2018-05-14T20:36:10.988Z,101044.66
2018-05-14T20:38:38.610Z,101040.52
2018-05-14T20:41:06.233Z,101041.44
2018-05-14T20:43:33.834Z,101039.70
2018-05-14T20:46:01.460Z,101035.06
2018-05-14T20:48:29.033Z,101037.22
2018-05-14T20:50:56.667Z,101039.48
2018-05-14T20:53:25.149Z,101047.53
2018-05-14T20:55:53.600Z,101046.77
2018-05-14T20:58:22.082Z,101042.73
2018-05-14T21:00:50.405Z,101048.79
2018-05-14T21:03:18.797Z,101051.84
2018-05-14T21:05:47.242Z,101059.89
2018-05-14T21:08:14.804Z,101057.52
2018-05-14T21:10:42.417Z,101052.58
2018-05-14T21:13:10.139Z,101054.86
2018-05-14T21:15:38.951Z,101056.06
2018-05-14T21:18:06.575Z,101056.72
2018-05-14T21:20:34.160Z,101061.06
2018-05-14T21:23:02.895Z,101050.47
2018-05-14T21:25:30.482Z,101056.98
2018-05-14T21:27:58.100Z,101054.56
2018-05-14T21:30:25.678Z,101049.44
2018-05-14T21:32:53.261Z,101056.42
2018-05-14T21:35:20.908Z,101052.31
2018-05-14T21:37:48.447Z,101057.06
2018-05-14T21:40:16.022Z,101060.53
2018-05-14T21:42:43.601Z,101063.38
2018-05-14T21:45:11.216Z,101064.93
2018-05-14T21:47:38.796Z,101070.56
2018-05-14T21:50:06.381Z,101068.34
2018-05-14T21:52:33.958Z,101065.44
2018-05-14T21:55:01.535Z,101068.34
2018-05-14T21:57:29.154Z,101070.52
2018-05-14T21:59:56.721Z,101067.70
2018-05-14T22:02:24.373Z,101068.19
2018-05-14T22:04:51.957Z,101072.44
2018-05-14T22:07:19.536Z,101071.23
2018-05-14T22:09:47.113Z,101069.62
2018-05-14T22:12:15.494Z,101071.28
2018-05-14T22:14:43.861Z,101068.38
2018-05-14T22:17:12.337Z,101072.38
2018-05-14T22:19:39.921Z,101073.49
2018-05-14T22:22:07.497Z,101069.12
2018-05-14T22:24:35.072Z,101072.60
2018-05-14T22:27:02.647Z,101070.95
2018-05-14T22:29:31.052Z,101070.16
2018-05-14T22:31:59.519Z,101065.83
2018-05-14T22:34:27.138Z,101066.07
2018-05-14T22:36:54.713Z,101058.28
2018-05-14T22:39:22.290Z,101066.86
2018-05-14T22:41:49.865Z,101074.75
2018-05-14T22:44:18.262Z,101072.12
2018-05-14T22:46:46.717Z,101071.39
2018-05-14T22:49:14.297Z,101075.16
2018-05-14T22:51:41.909Z,101071.63
2018-05-14T22:54:10.269Z,101084.82
2018-05-14T22:56:38.637Z,101080.33
2018-05-14T22:59:07.046Z,101084.27
2018-05-14T23:01:35.394Z,101079.91
2018-05-14T23:04:02.972Z,101075.74
2018-05-14T23:06:30.545Z,101077.95
2018-05-14T23:08:58.121Z,101082.23
2018-05-14T23:11:26.461Z,101075.32
2018-05-14T23:13:54.828Z,101077.83
2018-05-14T23:16:23.093Z,101080.80
2018-05-14T23:18:51.766Z,101079.02
2018-05-14T23:21:20.143Z,101072.92
2018-05-14T23:23:48.407Z,101079.91
2018-05-14T23:26:16.808Z,101078.66
2018-05-14T23:28:45.186Z,101084.04
2018-05-14T23:31:13.565Z,101077.05
2018-05-14T23:33:41.925Z,101082.82
2018-05-14T23:36:09.546Z,101080.56
2018-05-14T23:38:37.796Z,101079.42
2018-05-14T23:41:05.410Z,101076.61
2018-05-14T23:43:33.764Z,101078.44
2018-05-14T23:46:02.162Z,101082.40
2018-05-14T23:48:30.448Z,101079.26
2018-05-14T23:50:58.885Z,101077.48
2018-05-14T23:53:27.470Z,101080.45
2018-05-14T23:55:55.054Z,101084.23
2018-05-14T23:58:23.467Z,101081.77
